createdAt,value
2019-03-16T00:00:45.961Z,69.67
2019-03-16T00:03:14.670Z,69.59
2019-03-16T00:05:44.067Z,69.98
2019-03-16T00:08:12.759Z,70.14
2019-03-16T00:10:41.515Z,70.15
2019-03-16T00:13:10.272Z,70.70
2019-03-16T00:15:38.969Z,69.90
2019-03-16T00:18:07.648Z,70.40
2019-03-16T00:20:36.675Z,70.50
2019-03-16T00:23:05.655Z,70.60
2019-03-16T00:25:34.582Z,71.16
2019-03-16T00:28:03.958Z,71.06
2019-03-16T00:30:32.993Z,70.92
2019-03-16T00:33:02.137Z,70.74
2019-03-16T00:35:30.814Z,70.88
2019-03-16T00:37:59.524Z,70.59
2019-03-16T00:40:28.523Z,71.41
2019-03-16T00:42:57.919Z,70.82
2019-03-16T00:45:26.896Z,70.80
2019-03-16T00:47:55.649Z,70.55
2019-03-16T00:50:24.340Z,70.65
2019-03-16T00:52:53.097Z,71.49
2019-03-16T00:55:21.789Z,71.20
2019-03-16T00:57:50.741Z,71.40
2019-03-16T01:00:19.504Z,71.36
2019-03-16T01:02:48.488Z,70.93
2019-03-16T01:05:17.521Z,71.42
2019-03-16T01:07:46.922Z,70.97
2019-03-16T01:10:15.672Z,71.04
2019-03-16T01:12:44.641Z,70.77
2019-03-16T01:15:13.897Z,70.60
2019-03-16T01:17:42.669Z,71.27
2019-03-16T01:20:11.559Z,70.98
2019-03-16T01:22:40.312Z,71.40
2019-03-16T01:25:09.954Z,71.16
2019-03-16T01:27:38.880Z,71.28
2019-03-16T01:30:09.840Z,70.97
2019-03-16T01:32:40.796Z,70.96
2019-03-16T01:35:09.337Z,71.35
2019-03-16T01:37:38.114Z,71.08
2019-03-16T01:40:07.573Z,70.98
2019-03-16T01:42:36.319Z,71.05
2019-03-16T01:45:05.461Z,70.62
2019-03-16T01:47:34.515Z,71.19
2019-03-16T01:50:03.301Z,70.62
2019-03-16T01:52:52.756Z,71.10
2019-03-16T01:55:21.665Z,71.01
2019-03-16T01:57:50.352Z,71.14
2019-03-16T02:00:19.126Z,70.89
2019-03-16T02:02:55.216Z,71.03
2019-03-16T02:05:18.208Z,70.70
2019-03-16T02:07:47.150Z,70.62
2019-03-16T02:10:15.904Z,70.76
2019-03-16T02:12:44.599Z,70.98
2019-03-16T02:15:13.717Z,70.92
2019-03-16T02:17:42.716Z,70.51
2019-03-16T02:20:11.555Z,70.66
2019-03-16T02:22:40.340Z,70.53
2019-03-16T02:25:09.091Z,70.77
2019-03-16T02:27:38.105Z,70.17
2019-03-16T02:30:07.136Z,70.00
2019-03-16T02:32:36.062Z,69.96
2019-03-16T02:35:05.439Z,70.68
2019-03-16T02:37:34.856Z,69.67
2019-03-16T02:40:03.721Z,69.89
2019-03-16T02:42:32.408Z,70.08
2019-03-16T02:45:01.096Z,70.23
2019-03-16T02:47:29.815Z,69.95
2019-03-16T02:49:58.701Z,69.94
2019-03-16T02:52:27.659Z,69.84
2019-03-16T02:54:56.362Z,70.35
2019-03-16T02:57:25.283Z,70.44
2019-03-16T02:59:53.966Z,70.48
2019-03-16T03:02:22.919Z,71.19
2019-03-16T03:04:51.636Z,70.16
2019-03-16T03:07:20.542Z,70.62
2019-03-16T03:09:49.465Z,70.51
2019-03-16T03:12:18.142Z,70.39
2019-03-16T03:14:47.362Z,70.69
2019-03-16T03:17:16.029Z,71.00
2019-03-16T03:19:45.347Z,70.85
2019-03-16T03:22:13.975Z,71.40
2019-03-16T03:24:45.390Z,70.77
2019-03-16T03:27:14.076Z,71.43
2019-03-16T03:29:43.044Z,71.40
2019-03-16T03:32:11.731Z,71.05
2019-03-16T03:34:40.429Z,70.94
2019-03-16T03:37:09.074Z,71.15
2019-03-16T03:39:37.989Z,71.14
2019-03-16T03:42:07.040Z,71.25
2019-03-16T03:44:36.239Z,72.06
2019-03-16T03:47:05.081Z,71.57
2019-03-16T03:49:33.788Z,71.60
2019-03-16T03:52:02.666Z,71.25
2019-03-16T03:54:31.666Z,71.75
2019-03-16T03:57:00.632Z,71.88
2019-03-16T03:59:29.641Z,71.78
2019-03-16T04:01:58.768Z,71.62
2019-03-16T04:04:27.632Z,71.47
2019-03-16T04:06:56.385Z,72.04
2019-03-16T04:09:25.657Z,71.88
2019-03-16T04:11:54.566Z,71.84
2019-03-16T04:14:23.245Z,71.85
2019-03-16T04:16:51.927Z,71.70
2019-03-16T04:19:20.692Z,71.82
2019-03-16T04:21:49.834Z,71.66
2019-03-16T04:24:18.552Z,71.39
2019-03-16T04:26:47.236Z,71.81
2019-03-16T04:29:15.944Z,71.95
2019-03-16T04:31:45.257Z,71.24
2019-03-16T04:34:28.076Z,71.80
2019-03-16T04:36:44.332Z,71.91
2019-03-16T04:39:13.047Z,71.98
2019-03-16T04:41:41.994Z,71.72
2019-03-16T04:44:11.008Z,72.06
2019-03-16T04:46:40.299Z,71.37
2019-03-16T04:49:09.296Z,71.73
2019-03-16T04:51:38.233Z,71.92
2019-03-16T04:54:07.246Z,72.23
2019-03-16T04:56:36.261Z,71.82
2019-03-16T04:59:04.946Z,72.55
2019-03-16T05:01:33.635Z,72.31
2019-03-16T05:04:02.952Z,71.65
2019-03-16T05:06:31.706Z,71.79
2019-03-16T05:09:00.675Z,72.03
2019-03-16T05:11:29.350Z,70.40
2019-03-16T05:13:58.056Z,71.79
2019-03-16T05:16:27.087Z,69.70
2019-03-16T05:18:55.759Z,69.99
2019-03-16T05:21:24.539Z,70.70
2019-03-16T05:23:53.233Z,70.21
2019-03-16T05:26:21.929Z,70.31
2019-03-16T05:28:50.686Z,68.14
2019-03-16T05:31:20.636Z,67.79
2019-03-16T05:33:49.719Z,69.35
2019-03-16T05:36:18.921Z,70.07
2019-03-16T05:38:47.615Z,71.56
2019-03-16T05:41:16.609Z,72.12
2019-03-16T05:43:45.293Z,72.02
2019-03-16T05:46:13.979Z,72.69
2019-03-16T05:48:42.643Z,72.99
2019-03-16T05:51:11.573Z,74.23
2019-03-16T05:53:40.262Z,75.37
2019-03-16T05:56:10.812Z,77.64
2019-03-16T05:58:39.861Z,76.74
2019-03-16T06:01:09.170Z,77.77
2019-03-16T06:03:38.193Z,78.27
2019-03-16T06:06:06.930Z,80.04
2019-03-16T06:08:36.243Z,80.74
2019-03-16T06:11:05.233Z,81.42
2019-03-16T06:13:33.918Z,81.28
2019-03-16T06:16:02.610Z,81.63
2019-03-16T06:18:31.536Z,81.90
2019-03-16T06:21:00.204Z,82.06
2019-03-16T06:23:29.744Z,82.13
2019-03-16T06:25:58.500Z,82.17
2019-03-16T06:28:27.456Z,81.91
2019-03-16T06:30:56.561Z,82.31
2019-03-16T06:33:25.233Z,82.78
2019-03-16T06:35:54.172Z,82.81
2019-03-16T06:38:22.868Z,83.01
2019-03-16T06:40:51.541Z,83.14
2019-03-16T06:43:20.452Z,83.28
2019-03-16T06:45:49.398Z,83.32
2019-03-16T06:48:18.337Z,83.50
2019-03-16T06:50:47.532Z,83.16
2019-03-16T06:53:19.545Z,83.61
2019-03-16T06:55:46.881Z,83.82
2019-03-16T06:58:15.596Z,84.05
2019-03-16T07:00:44.542Z,84.32
2019-03-16T07:03:13.479Z,84.22
2019-03-16T07:05:42.480Z,83.96
2019-03-16T07:08:11.153Z,83.82
2019-03-16T07:10:41.850Z,83.51
2019-03-16T07:13:10.791Z,83.81
2019-03-16T07:15:39.774Z,83.74
2019-03-16T07:18:08.462Z,83.85
2019-03-16T07:20:37.140Z,83.65
2019-03-16T07:23:06.094Z,84.19
2019-03-16T07:25:34.762Z,84.29
2019-03-16T07:28:03.402Z,84.05
2019-03-16T07:30:32.160Z,84.65
2019-03-16T07:33:01.078Z,84.26
2019-03-16T07:35:29.764Z,84.01
2019-03-16T07:37:58.671Z,84.38
2019-03-16T07:40:27.596Z,84.07
2019-03-16T07:42:56.294Z,84.28
2019-03-16T07:45:25.008Z,84.47
2019-03-16T07:47:53.684Z,83.83
2019-03-16T07:50:22.370Z,83.92
2019-03-16T07:52:51.301Z,84.25
2019-03-16T07:55:19.979Z,84.37
2019-03-16T07:57:48.657Z,85.03
2019-03-16T08:00:17.422Z,85.29
2019-03-16T08:02:46.382Z,85.42
2019-03-16T08:05:19.389Z,85.36
2019-03-16T08:07:45.698Z,84.77
2019-03-16T08:10:14.515Z,84.88
2019-03-16T08:12:43.213Z,85.49
2019-03-16T08:15:12.010Z,85.45
2019-03-16T08:17:40.802Z,85.72
2019-03-16T08:20:11.280Z,85.93
2019-03-16T08:22:39.983Z,85.76
2019-03-16T08:25:08.826Z,85.06
2019-03-16T08:27:37.501Z,85.51
2019-03-16T08:30:06.399Z,84.84
2019-03-16T08:32:35.343Z,85.32
2019-03-16T08:35:04.171Z,85.52
2019-03-16T08:37:33.108Z,85.62
2019-03-16T08:40:12.805Z,85.51
2019-03-16T08:42:43.177Z,85.39
2019-03-16T08:45:12.637Z,85.07
2019-03-16T08:47:41.447Z,85.15
2019-03-16T08:50:10.684Z,85.68
2019-03-16T08:52:39.697Z,85.25
2019-03-16T08:55:08.754Z,85.59
2019-03-16T08:57:37.521Z,85.72
2019-03-16T09:00:06.909Z,85.78
2019-03-16T09:02:35.649Z,86.09
2019-03-16T09:05:04.615Z,86.07
2019-03-16T09:07:33.333Z,86.20
2019-03-16T09:10:02.260Z,86.61
2019-03-16T09:12:31.209Z,87.04
2019-03-16T09:14:59.905Z,87.23
2019-03-16T09:17:28.913Z,87.34
2019-03-16T09:19:57.859Z,87.49
2019-03-16T09:22:29.508Z,87.66
2019-03-16T09:24:57.118Z,87.59
2019-03-16T09:27:31.171Z,87.83
2019-03-16T09:29:56.256Z,87.66
2019-03-16T09:32:25.201Z,87.94
2019-03-16T09:34:53.898Z,87.88
2019-03-16T09:37:22.625Z,87.97
2019-03-16T09:39:51.571Z,88.16
2019-03-16T09:42:20.278Z,88.32
2019-03-16T09:44:48.981Z,88.42
2019-03-16T09:47:18.029Z,88.49
2019-03-16T09:49:47.263Z,88.77
2019-03-16T09:52:16.284Z,88.80
2019-03-16T09:54:45.009Z,89.08
2019-03-16T09:57:13.758Z,89.18
2019-03-16T09:59:43.036Z,89.35
2019-03-16T10:02:12.053Z,89.51
2019-03-16T10:04:40.799Z,89.70
2019-03-16T10:07:09.505Z,89.86
2019-03-16T10:09:38.463Z,89.93
2019-03-16T10:12:07.166Z,89.98
2019-03-16T10:14:37.264Z,90.00
2019-03-16T10:17:06.401Z,90.09
2019-03-16T10:19:35.209Z,90.26
2019-03-16T10:22:03.980Z,90.06
2019-03-16T10:24:32.926Z,90.19
2019-03-16T10:27:04.379Z,90.22
2019-03-16T10:29:33.119Z,90.33
2019-03-16T10:32:02.125Z,90.22
2019-03-16T10:34:30.907Z,90.12
2019-03-16T10:37:00.737Z,90.01
2019-03-16T10:39:29.442Z,89.93
2019-03-16T10:41:58.650Z,90.06
2019-03-16T10:44:27.650Z,90.27
2019-03-16T10:46:56.641Z,90.17
2019-03-16T10:49:25.353Z,90.22
2019-03-16T10:51:54.069Z,89.97
2019-03-16T10:54:22.777Z,89.83
2019-03-16T10:56:51.490Z,89.72
2019-03-16T10:59:20.434Z,89.49
2019-03-16T11:01:49.531Z,88.97
2019-03-16T11:04:18.517Z,88.71
2019-03-16T11:06:47.243Z,88.45
2019-03-16T11:09:16.167Z,88.13
2019-03-16T11:11:44.861Z,87.93
2019-03-16T11:14:13.633Z,87.40
2019-03-16T11:16:42.550Z,87.54
2019-03-16T11:19:11.511Z,87.45
2019-03-16T11:21:41.990Z,87.46
2019-03-16T11:24:10.736Z,87.10
2019-03-16T11:26:39.429Z,87.21
2019-03-16T11:29:09.519Z,86.48
2019-03-16T11:31:38.546Z,85.89
2019-03-16T11:34:07.403Z,86.04
2019-03-16T11:36:36.389Z,85.95
2019-03-16T11:39:07.546Z,85.15
2019-03-16T11:41:36.458Z,85.18
2019-03-16T11:44:05.242Z,85.29
2019-03-16T11:46:34.216Z,86.02
2019-03-16T11:49:03.478Z,85.88
2019-03-16T11:51:32.179Z,85.84
2019-03-16T11:54:01.131Z,86.19
2019-03-16T11:56:29.869Z,87.01
2019-03-16T11:58:58.557Z,86.05
2019-03-16T12:01:27.277Z,86.49
2019-03-16T12:03:56.220Z,86.75
2019-03-16T12:06:25.399Z,86.87
2019-03-16T12:08:54.360Z,87.05
2019-03-16T12:11:23.140Z,86.84
2019-03-16T12:13:51.798Z,86.89
2019-03-16T12:16:20.733Z,87.31
2019-03-16T12:18:49.791Z,87.21
2019-03-16T12:21:18.513Z,87.38
2019-03-16T12:23:47.249Z,87.70
2019-03-16T12:26:15.978Z,86.23
2019-03-16T12:28:44.705Z,86.79
2019-03-16T12:31:13.492Z,86.17
2019-03-16T12:33:42.210Z,85.68
2019-03-16T12:36:11.165Z,84.56
2019-03-16T12:38:43.080Z,86.13
2019-03-16T12:41:11.798Z,84.72
2019-03-16T12:43:40.573Z,84.79
2019-03-16T12:46:09.257Z,84.67
2019-03-16T12:48:38.005Z,85.02
2019-03-16T12:51:07.012Z,84.30
2019-03-16T12:53:35.735Z,84.60
2019-03-16T12:56:04.458Z,83.58
2019-03-16T12:58:33.508Z,84.68
2019-03-16T13:01:02.476Z,83.62
2019-03-16T13:03:31.453Z,82.97
2019-03-16T13:06:00.156Z,84.17
2019-03-16T13:08:29.115Z,83.44
2019-03-16T13:10:57.866Z,82.63
2019-03-16T13:13:26.842Z,82.82
2019-03-16T13:15:55.526Z,82.66
2019-03-16T13:18:24.496Z,82.70
2019-03-16T13:20:53.231Z,82.99
2019-03-16T13:23:22.284Z,82.39
2019-03-16T13:25:50.987Z,82.55
2019-03-16T13:28:19.789Z,81.95
2019-03-16T13:30:49.074Z,81.77
2019-03-16T13:33:18.025Z,81.49
2019-03-16T13:35:46.769Z,80.40
2019-03-16T13:38:15.731Z,81.00
2019-03-16T13:40:47.080Z,80.89
2019-03-16T13:43:15.784Z,80.89
2019-03-16T13:45:45.017Z,80.65
2019-03-16T13:48:18.978Z,80.33
2019-03-16T13:50:47.674Z,79.32
2019-03-16T13:53:16.382Z,78.63
2019-03-16T13:55:45.167Z,78.12
2019-03-16T13:58:14.365Z,78.24
2019-03-16T14:00:43.099Z,78.12
2019-03-16T14:03:12.792Z,77.94
2019-03-16T14:05:41.825Z,78.77
2019-03-16T14:08:10.596Z,79.32
2019-03-16T14:10:39.883Z,78.76
2019-03-16T14:13:11.264Z,78.41
2019-03-16T14:15:39.983Z,78.27
2019-03-16T14:18:08.678Z,78.83
2019-03-16T14:20:37.375Z,78.98
2019-03-16T14:23:06.078Z,78.90
2019-03-16T14:25:34.972Z,78.11
2019-03-16T14:28:03.733Z,78.40
2019-03-16T14:30:40.880Z,77.47
2019-03-16T14:33:02.864Z,76.66
2019-03-16T14:35:31.813Z,76.58
2019-03-16T14:38:00.534Z,75.91
2019-03-16T14:40:29.293Z,76.41
2019-03-16T14:42:58.060Z,76.41
2019-03-16T14:45:27.052Z,77.71
2019-03-16T14:47:55.991Z,77.01
2019-03-16T14:50:24.691Z,75.97
2019-03-16T14:52:53.439Z,76.11
2019-03-16T14:55:22.143Z,76.67
2019-03-16T14:57:50.896Z,77.05
2019-03-16T15:00:19.566Z,76.75
2019-03-16T15:02:48.246Z,76.41
2019-03-16T15:05:16.964Z,76.52
2019-03-16T15:07:45.623Z,76.52
2019-03-16T15:10:14.410Z,76.82
2019-03-16T15:12:43.107Z,76.17
2019-03-16T15:15:12.367Z,76.41
2019-03-16T15:17:41.063Z,76.98
2019-03-16T15:20:14.658Z,76.73
2019-03-16T15:22:43.900Z,76.73
2019-03-16T15:25:12.596Z,76.77
2019-03-16T15:27:41.430Z,76.86
2019-03-16T15:30:12.490Z,76.98
2019-03-16T15:32:41.334Z,76.05
2019-03-16T15:35:10.929Z,75.62
2019-03-16T15:37:39.899Z,75.75
2019-03-16T15:40:09.623Z,73.94
2019-03-16T15:42:38.333Z,74.09
2019-03-16T15:45:09.650Z,73.39
2019-03-16T15:47:38.365Z,74.24
2019-03-16T15:50:07.809Z,73.87
2019-03-16T15:52:37.678Z,73.75
2019-03-16T15:55:06.896Z,73.56
2019-03-16T15:57:35.648Z,73.94
2019-03-16T16:00:05.326Z,73.69
2019-03-16T16:02:34.721Z,73.51
2019-03-16T16:05:03.436Z,72.95
2019-03-16T16:07:35.121Z,72.72
2019-03-16T16:10:02.792Z,73.09
2019-03-16T16:12:31.486Z,72.36
2019-03-16T16:15:00.381Z,73.11
2019-03-16T16:17:29.334Z,72.63
2019-03-16T16:19:58.311Z,73.29
2019-03-16T16:22:26.999Z,74.12
2019-03-16T16:24:55.699Z,73.26
2019-03-16T16:27:24.408Z,73.99
2019-03-16T16:29:53.352Z,73.61
2019-03-16T16:32:22.274Z,72.76
2019-03-16T16:34:50.952Z,73.91
2019-03-16T16:37:19.648Z,72.68
2019-03-16T16:39:48.592Z,72.96
2019-03-16T16:42:17.278Z,73.46
2019-03-16T16:44:46.236Z,72.81
2019-03-16T16:47:14.978Z,72.89
2019-03-16T16:49:43.871Z,73.17
2019-03-16T16:52:12.563Z,73.41
2019-03-16T16:54:41.554Z,72.72
2019-03-16T16:57:10.242Z,72.80
2019-03-16T16:59:38.921Z,72.48
2019-03-16T17:02:07.994Z,72.31
2019-03-16T17:04:36.915Z,72.27
2019-03-16T17:07:05.875Z,72.68
2019-03-16T17:09:34.844Z,72.81
2019-03-16T17:12:03.655Z,72.52
2019-03-16T17:14:32.349Z,72.21
2019-03-16T17:17:01.287Z,71.79
2019-03-16T17:19:29.939Z,71.97
2019-03-16T17:21:58.916Z,72.27
2019-03-16T17:24:27.691Z,71.64
2019-03-16T17:26:56.382Z,71.51
2019-03-16T17:29:25.385Z,71.96
2019-03-16T17:31:54.401Z,71.69
2019-03-16T17:34:23.047Z,72.12
2019-03-16T17:36:52.001Z,71.34
2019-03-16T17:39:20.689Z,71.21
2019-03-16T17:41:49.494Z,70.74
2019-03-16T17:44:18.427Z,69.67
2019-03-16T17:46:47.118Z,70.01
2019-03-16T17:49:15.807Z,69.50
2019-03-16T17:51:44.491Z,69.73
2019-03-16T17:54:13.450Z,68.76
2019-03-16T17:56:42.192Z,69.19
2019-03-16T17:59:10.872Z,69.23
2019-03-16T18:01:39.590Z,68.79
2019-03-16T18:04:12.571Z,70.05
2019-03-16T18:06:46.915Z,68.77
2019-03-16T18:09:17.222Z,69.38
2019-03-16T18:11:46.733Z,69.66
2019-03-16T18:14:17.896Z,69.17
2019-03-16T18:16:47.516Z,68.84
2019-03-16T18:19:16.537Z,68.99
2019-03-16T18:21:45.361Z,68.63
2019-03-16T18:24:14.189Z,68.56
2019-03-16T18:26:43.026Z,69.24
2019-03-16T18:29:12.438Z,69.76
2019-03-16T18:31:41.552Z,68.41
2019-03-16T18:34:11.069Z,69.87
2019-03-16T18:36:40.835Z,69.87
2019-03-16T18:39:09.811Z,69.13
2019-03-16T18:41:39.041Z,69.04
2019-03-16T18:44:07.849Z,68.23
2019-03-16T18:46:37.315Z,69.82
2019-03-16T18:49:07.625Z,69.52
2019-03-16T18:51:44.080Z,69.86
2019-03-16T18:54:13.132Z,69.21
2019-03-16T18:56:42.147Z,68.75
2019-03-16T18:59:11.232Z,68.93
2019-03-16T19:01:39.913Z,68.54
2019-03-16T19:04:08.855Z,68.20
2019-03-16T19:06:37.790Z,68.99
2019-03-16T19:09:08.435Z,68.83
2019-03-16T19:11:37.169Z,68.98
2019-03-16T19:14:05.913Z,69.07
2019-03-16T19:16:34.855Z,68.92
2019-03-16T19:19:03.768Z,68.27
2019-03-16T19:21:34.825Z,68.44
2019-03-16T19:24:03.541Z,68.27
2019-03-16T19:26:32.175Z,68.42
2019-03-16T19:29:00.855Z,68.42
2019-03-16T19:31:29.833Z,67.63
2019-03-16T19:33:58.621Z,68.18
2019-03-16T19:36:27.324Z,67.94
2019-03-16T19:38:56.255Z,67.98
2019-03-16T19:41:25.240Z,68.22
2019-03-16T19:43:53.964Z,68.38
2019-03-16T19:46:22.643Z,68.22
2019-03-16T19:48:51.327Z,68.70
2019-03-16T19:51:20.023Z,68.21
2019-03-16T19:53:49.213Z,67.64
2019-03-16T19:56:18.141Z,67.17
2019-03-16T19:58:59.721Z,67.30
2019-03-16T20:01:17.758Z,67.60
2019-03-16T20:03:46.696Z,67.01
2019-03-16T20:06:25.590Z,67.15
2019-03-16T20:08:48.265Z,68.17
2019-03-16T20:11:16.972Z,67.91
2019-03-16T20:13:45.699Z,66.61
2019-03-16T20:16:14.649Z,68.09
2019-03-16T20:18:43.319Z,67.98
2019-03-16T20:21:12.544Z,68.49
2019-03-16T20:23:41.267Z,68.84
2019-03-16T20:26:09.951Z,67.95
2019-03-16T20:28:40.891Z,67.95
2019-03-16T20:31:09.588Z,68.36
2019-03-16T20:33:38.291Z,68.25
2019-03-16T20:36:07.467Z,68.26
2019-03-16T20:38:36.412Z,68.42
2019-03-16T20:41:05.239Z,67.98
2019-03-16T20:43:33.968Z,68.03
2019-03-16T20:46:02.973Z,67.91
2019-03-16T20:48:31.912Z,68.28
2019-03-16T20:51:00.876Z,67.67
2019-03-16T20:53:29.568Z,66.84
2019-03-16T20:55:58.293Z,68.00
2019-03-16T20:58:26.959Z,67.94
2019-03-16T21:00:58.070Z,67.94
2019-03-16T21:03:26.097Z,67.01
2019-03-16T21:05:55.040Z,67.49
2019-03-16T21:08:23.714Z,67.14
2019-03-16T21:10:52.413Z,67.43
2019-03-16T21:13:21.105Z,67.00
2019-03-16T21:15:49.789Z,66.94
2019-03-16T21:18:18.793Z,67.20
2019-03-16T21:20:47.489Z,67.03
2019-03-16T21:23:16.207Z,66.94
2019-03-16T21:25:45.112Z,67.34
2019-03-16T21:28:15.848Z,67.29
2019-03-16T21:30:44.472Z,66.96
2019-03-16T21:33:13.213Z,66.65
2019-03-16T21:35:42.135Z,66.23
2019-03-16T21:38:11.075Z,66.99
2019-03-16T21:40:40.020Z,66.85
2019-03-16T21:43:08.942Z,67.30
2019-03-16T21:45:37.611Z,66.23
2019-03-16T21:48:06.617Z,66.47
2019-03-16T21:50:35.703Z,66.62
2019-03-16T21:53:04.741Z,66.83
2019-03-16T21:55:33.500Z,65.70
2019-03-16T21:58:03.901Z,66.61
2019-03-16T22:00:32.579Z,66.76
2019-03-16T22:03:01.479Z,67.19
2019-03-16T22:05:30.157Z,67.07
2019-03-16T22:07:59.605Z,66.39
2019-03-16T22:10:28.567Z,66.32
2019-03-16T22:12:57.240Z,66.51
2019-03-16T22:15:25.918Z,66.10
2019-03-16T22:17:54.581Z,65.94
2019-03-16T22:20:23.268Z,66.01
2019-03-16T22:22:52.446Z,66.48
2019-03-16T22:25:21.470Z,66.95
2019-03-16T22:27:51.809Z,66.40
2019-03-16T22:30:20.730Z,66.45
2019-03-16T22:32:52.452Z,66.07
2019-03-16T22:35:24.148Z,66.41
2019-03-16T22:37:53.209Z,66.38
2019-03-16T22:40:22.213Z,66.36
2019-03-16T22:42:51.167Z,66.89
2019-03-16T22:45:19.923Z,66.26
2019-03-16T22:47:48.589Z,67.14
2019-03-16T22:50:17.383Z,66.76
2019-03-16T22:52:46.038Z,66.27
2019-03-16T22:55:16.147Z,66.62
2019-03-16T22:57:45.676Z,66.37
2019-03-16T23:00:14.833Z,66.24
2019-03-16T23:02:43.630Z,66.22
2019-03-16T23:05:12.778Z,65.90
2019-03-16T23:07:41.447Z,65.62
2019-03-16T23:10:10.746Z,65.43
2019-03-16T23:12:39.437Z,65.82
2019-03-16T23:15:08.244Z,65.77
2019-03-16T23:17:37.219Z,65.84
2019-03-16T23:20:06.039Z,65.93
2019-03-16T23:22:35.025Z,65.52
2019-03-16T23:25:03.863Z,65.25
2019-03-16T23:27:32.573Z,65.77
2019-03-16T23:30:01.934Z,66.59
2019-03-16T23:32:30.966Z,65.92
2019-03-16T23:34:59.950Z,65.82
2019-03-16T23:37:28.636Z,65.79
2019-03-16T23:39:57.613Z,65.31
2019-03-16T23:42:26.315Z,65.28
2019-03-16T23:44:55.018Z,65.68
2019-03-16T23:47:23.995Z,65.86
2019-03-16T23:49:52.707Z,65.82
2019-03-16T23:52:21.675Z,65.82
2019-03-16T23:54:50.664Z,65.56
2019-03-16T23:57:19.397Z,65.79
2019-03-16T23:59:48.896Z,65.67
